createdAt,value
2022-11-13T00:02:08.750Z,101768.38
2022-11-13T00:04:57.455Z,101766.56
2022-11-13T00:07:46.274Z,101759.88
2022-11-13T00:10:34.979Z,101765.22
2022-11-13T00:13:29.036Z,101761.84
2022-11-13T00:16:20.722Z,101760.19
2022-11-13T00:19:10.704Z,101759.19
2022-11-13T00:22:00.255Z,101755.03
2022-11-13T00:24:48.894Z,101752.38
2022-11-13T00:27:37.548Z,101754.53
2022-11-13T00:30:26.188Z,101752.03
2022-11-13T00:33:26.500Z,101745.81
2022-11-13T00:36:26.724Z,101741.50
2022-11-13T00:39:15.541Z,101740.81
2022-11-13T00:42:04.360Z,101730.13
2022-11-13T00:44:53.218Z,101734.81
2022-11-13T00:47:41.930Z,101734.16
2022-11-13T00:50:30.534Z,101741.97
2022-11-13T00:53:20.821Z,101746.16
2022-11-13T00:56:09.891Z,101747.16
2022-11-13T00:58:58.845Z,101746.50
2022-11-13T01:01:47.648Z,101746.50
2022-11-13T01:04:36.328Z,101743.19
2022-11-13T01:07:24.891Z,101746.84
2022-11-13T01:10:14.947Z,101739.84
2022-11-13T01:13:04.073Z,101736.16
2022-11-13T01:15:52.726Z,101728.31
2022-11-13T01:18:42.764Z,101735.47
2022-11-13T01:21:31.568Z,101738.00
2022-11-13T01:24:20.216Z,101716.78
2022-11-13T01:27:10.374Z,101721.31
2022-11-13T01:29:58.950Z,101727.47
2022-11-13T01:32:47.713Z,101717.97
2022-11-13T01:35:36.361Z,101715.44
2022-11-13T01:38:25.141Z,101713.44
2022-11-13T01:41:23.111Z,101705.44
2022-11-13T01:44:15.484Z,101694.06
2022-11-13T01:47:04.969Z,101693.56
2022-11-13T01:49:55.955Z,101700.59
2022-11-13T01:52:44.726Z,101691.09
2022-11-13T01:55:33.352Z,101698.91
2022-11-13T01:58:22.216Z,101690.75
2022-11-13T02:01:12.182Z,101685.75
2022-11-13T02:04:00.824Z,101678.56
2022-11-13T02:06:51.550Z,101679.56
2022-11-13T02:09:42.648Z,101671.38
2022-11-13T02:12:35.371Z,101673.06
2022-11-13T02:15:26.602Z,101680.06
2022-11-13T02:18:17.180Z,101681.06
2022-11-13T02:21:12.417Z,101667.72
2022-11-13T02:24:13.830Z,101672.22
2022-11-13T02:27:05.100Z,101669.72
2022-11-13T02:29:53.741Z,101673.69
2022-11-13T02:32:45.370Z,101669.19
2022-11-13T02:35:35.769Z,101669.06
2022-11-13T02:38:24.379Z,101670.00
2022-11-13T02:41:14.342Z,101671.72
2022-11-13T02:44:02.922Z,101670.00
2022-11-13T02:46:51.551Z,101672.56
2022-11-13T02:49:40.143Z,101680.69
2022-11-13T02:52:29.034Z,101663.84
2022-11-13T02:55:17.865Z,101660.31
2022-11-13T02:58:07.817Z,101663.00
2022-11-13T03:00:56.495Z,101659.31
2022-11-13T03:03:57.171Z,101651.50
2022-11-13T03:06:46.628Z,101652.66
2022-11-13T03:09:35.277Z,101646.50
2022-11-13T03:12:23.889Z,101641.97
2022-11-13T03:15:14.130Z,101632.63
2022-11-13T03:18:04.863Z,101637.97
2022-11-13T03:20:54.182Z,101634.66
2022-11-13T03:23:45.007Z,101632.63
2022-11-13T03:26:33.642Z,101630.13
2022-11-13T03:29:22.197Z,101633.66
2022-11-13T03:32:12.371Z,101642.81
2022-11-13T03:35:00.910Z,101634.97
2022-11-13T03:37:49.505Z,101636.97
2022-11-13T03:40:39.281Z,101638.97
2022-11-13T03:43:28.268Z,101629.97
2022-11-13T03:46:16.935Z,101636.31
2022-11-13T03:49:06.906Z,101629.13
2022-11-13T03:51:55.470Z,101632.78
2022-11-13T03:54:44.097Z,101635.31
2022-11-13T03:57:33.126Z,101633.47
2022-11-13T04:00:21.963Z,101628.31
2022-11-13T04:03:10.744Z,101622.31
2022-11-13T04:06:00.744Z,101626.63
2022-11-13T04:08:49.281Z,101621.28
2022-11-13T04:11:37.915Z,101613.94
2022-11-13T04:14:26.547Z,101617.13
2022-11-13T04:17:15.145Z,101614.59
2022-11-13T04:20:03.822Z,101609.25
2022-11-13T04:22:53.841Z,101605.59
2022-11-13T04:25:42.416Z,101608.09
2022-11-13T04:28:31.350Z,101601.09
2022-11-13T04:31:20.216Z,101594.91
2022-11-13T04:34:10.070Z,101594.75
2022-11-13T04:36:58.704Z,101596.56
2022-11-13T04:39:48.765Z,101594.59
2022-11-13T04:42:51.715Z,101594.91
2022-11-13T04:45:40.437Z,101586.75
2022-11-13T04:48:29.484Z,101601.91
2022-11-13T04:51:18.405Z,101593.25
2022-11-13T04:54:07.148Z,101596.91
2022-11-13T04:56:57.313Z,101596.91
2022-11-13T04:59:45.905Z,101587.25
2022-11-13T05:02:34.728Z,101587.91
2022-11-13T05:05:23.417Z,101568.56
2022-11-13T05:08:12.760Z,101578.22
2022-11-13T05:11:01.730Z,101572.22
2022-11-13T05:13:51.836Z,101566.88
2022-11-13T05:16:40.764Z,101568.91
2022-11-13T05:19:29.398Z,101572.22
2022-11-13T05:22:18.007Z,101566.22
2022-11-13T05:25:07.025Z,101563.56
2022-11-13T05:27:55.634Z,101561.56
2022-11-13T05:30:45.663Z,101560.75
2022-11-13T05:33:34.276Z,101557.22
2022-11-13T05:36:23.743Z,101557.06
2022-11-13T05:39:12.959Z,101556.22
2022-11-13T05:42:01.547Z,101555.56
2022-11-13T05:44:50.144Z,101546.53
2022-11-13T05:47:40.142Z,101545.88
2022-11-13T05:50:28.855Z,101549.56
2022-11-13T05:53:17.487Z,101552.03
2022-11-13T05:56:08.026Z,101550.38
2022-11-13T05:58:57.086Z,101556.56
2022-11-13T06:01:45.875Z,101553.03
2022-11-13T06:04:36.277Z,101560.22
2022-11-13T06:07:24.932Z,101559.38
2022-11-13T06:10:13.666Z,101555.22
2022-11-13T06:13:02.298Z,101552.03
2022-11-13T06:15:51.040Z,101557.56
2022-11-13T06:18:40.262Z,101551.72
2022-11-13T06:21:32.217Z,101556.91
2022-11-13T06:24:20.842Z,101556.56
2022-11-13T06:27:09.494Z,101551.22
2022-11-13T06:29:58.282Z,101551.56
2022-11-13T06:32:47.004Z,101550.56
2022-11-13T06:35:35.848Z,101557.56
2022-11-13T06:38:26.048Z,101560.38
2022-11-13T06:41:16.848Z,101551.56
2022-11-13T06:44:05.716Z,101555.22
2022-11-13T06:46:54.440Z,101549.88
2022-11-13T06:49:43.197Z,101550.72
2022-11-13T06:52:31.808Z,101556.06
2022-11-13T06:55:21.898Z,101554.88
2022-11-13T06:58:10.577Z,101553.88
2022-11-13T07:00:59.440Z,101558.22
2022-11-13T07:03:48.120Z,101553.22
2022-11-13T07:06:40.404Z,101552.03
2022-11-13T07:09:29.300Z,101545.03
2022-11-13T07:12:19.242Z,101541.03
2022-11-13T07:15:08.565Z,101542.56
2022-11-13T07:17:57.332Z,101540.34
2022-11-13T07:20:46.316Z,101544.88
2022-11-13T07:23:37.045Z,101543.53
2022-11-13T07:26:26.024Z,101540.19
2022-11-13T07:29:16.131Z,101544.53
2022-11-13T07:32:04.769Z,101549.72
2022-11-13T07:34:53.330Z,101545.53
2022-11-13T07:37:42.011Z,101543.88
2022-11-13T07:40:30.651Z,101541.03
2022-11-13T07:43:19.465Z,101542.72
2022-11-13T07:46:09.528Z,101543.38
2022-11-13T07:48:58.185Z,101534.19
2022-11-13T07:51:46.890Z,101532.19
2022-11-13T07:54:35.620Z,101528.16
2022-11-13T07:57:24.375Z,101527.00
2022-11-13T08:00:13.986Z,101526.53
2022-11-13T08:03:08.009Z,101530.84
2022-11-13T08:06:01.973Z,101532.16
2022-11-13T08:08:50.642Z,101519.97
2022-11-13T08:11:39.446Z,101518.44
2022-11-13T08:14:28.020Z,101517.72
2022-11-13T08:17:16.747Z,101518.34
2022-11-13T08:20:08.149Z,101518.06
2022-11-13T08:22:58.651Z,101513.78
2022-11-13T08:25:47.723Z,101516.25
2022-11-13T08:28:37.896Z,101510.22
2022-11-13T08:31:26.979Z,101514.50
2022-11-13T08:34:15.708Z,101508.09
2022-11-13T08:37:05.753Z,101505.28
2022-11-13T08:39:54.460Z,101509.47
2022-11-13T08:42:43.248Z,101506.31
2022-11-13T08:45:32.606Z,101507.81
2022-11-13T08:48:21.419Z,101512.38
2022-11-13T08:51:10.086Z,101512.38
2022-11-13T08:54:00.071Z,101503.88
2022-11-13T08:56:55.645Z,101498.06
2022-11-13T08:59:44.776Z,101496.22
2022-11-13T09:02:33.497Z,101498.88
2022-11-13T09:05:22.103Z,101494.75
2022-11-13T09:08:11.008Z,101495.41
2022-11-13T09:11:04.927Z,101492.47
2022-11-13T09:13:53.805Z,101491.59
2022-11-13T09:16:42.548Z,101493.63
2022-11-13T09:19:31.317Z,101496.72
2022-11-13T09:22:19.926Z,101495.84
2022-11-13T09:25:09.346Z,101502.31
2022-11-13T09:28:01.309Z,101497.91
2022-11-13T09:30:49.979Z,101484.66
2022-11-13T09:33:38.718Z,101486.53
2022-11-13T09:36:27.296Z,101495.53
2022-11-13T09:39:17.032Z,101494.50
2022-11-13T09:42:13.085Z,101497.16
2022-11-13T09:45:07.226Z,101494.31
2022-11-13T09:47:56.370Z,101491.09
2022-11-13T09:50:45.127Z,101481.53
2022-11-13T09:53:39.514Z,101486.16
2022-11-13T09:56:31.690Z,101480.66
2022-11-13T09:59:26.837Z,101470.97
2022-11-13T10:02:23.146Z,101467.50
2022-11-13T10:05:15.668Z,101471.38
2022-11-13T10:08:08.738Z,101466.50
2022-11-13T10:11:03.551Z,101470.78
2022-11-13T10:13:55.020Z,101462.22
2022-11-13T10:16:46.885Z,101454.97
2022-11-13T10:19:41.333Z,101454.59
2022-11-13T10:22:34.592Z,101455.44
2022-11-13T10:25:25.100Z,101455.06
2022-11-13T10:28:48.149Z,101450.28
2022-11-13T10:31:26.255Z,101452.56
2022-11-13T10:34:15.846Z,101448.16
2022-11-13T10:37:17.625Z,101441.06
2022-11-13T10:40:07.091Z,101437.03
2022-11-13T10:42:55.924Z,101440.13
2022-11-13T10:45:57.463Z,101425.38
2022-11-13T10:48:46.134Z,101429.09
2022-11-13T10:51:35.966Z,101424.19
2022-11-13T10:54:28.834Z,101417.81
2022-11-13T10:57:26.973Z,101415.16
2022-11-13T11:00:24.578Z,101411.06
2022-11-13T11:03:17.836Z,101407.38
2022-11-13T11:06:07.153Z,101410.53
2022-11-13T11:08:55.905Z,101393.91
2022-11-13T11:12:18.846Z,101395.09
2022-11-13T11:15:21.880Z,101392.97
2022-11-13T11:18:22.814Z,101400.75
2022-11-13T11:21:14.677Z,101379.03
2022-11-13T11:24:07.561Z,101373.59
2022-11-13T11:27:01.377Z,101375.53
2022-11-13T11:29:53.759Z,101375.25
2022-11-13T11:32:44.873Z,101372.75
2022-11-13T11:35:40.965Z,101371.53
2022-11-13T11:38:34.908Z,101364.31
2022-11-13T11:41:29.574Z,101378.38
2022-11-13T11:44:24.794Z,101365.97
2022-11-13T11:47:16.741Z,101361.13
2022-11-13T11:50:08.659Z,101362.59
2022-11-13T11:53:02.040Z,101363.97
2022-11-13T11:56:01.105Z,101357.25
2022-11-13T11:59:06.963Z,101353.72
2022-11-13T12:02:20.173Z,101361.75
2022-11-13T12:05:20.688Z,101356.59
2022-11-13T12:08:17.553Z,101343.47
2022-11-13T12:11:13.323Z,101349.59
2022-11-13T12:14:07.572Z,101340.53
2022-11-13T12:17:17.163Z,101339.50
2022-11-13T12:20:18.830Z,101332.19
2022-11-13T12:23:17.010Z,101327.97
2022-11-13T12:26:11.039Z,101321.28
2022-11-13T12:29:01.982Z,101321.38
2022-11-13T12:31:58.053Z,101311.63
2022-11-13T12:34:51.540Z,101307.91
2022-11-13T12:37:44.402Z,101312.63
2022-11-13T12:40:41.212Z,101298.72
2022-11-13T12:43:44.833Z,101303.50
2022-11-13T12:46:37.982Z,101308.47
2022-11-13T12:49:32.101Z,101310.25
2022-11-13T12:52:24.395Z,101304.78
2022-11-13T12:55:28.163Z,101297.50
2022-11-13T12:58:21.530Z,101297.50
2022-11-13T13:01:18.636Z,101297.50
2022-11-13T13:04:45.189Z,101287.66
2022-11-13T13:07:50.187Z,101285.13
2022-11-13T13:10:50.614Z,101283.09
2022-11-13T13:13:44.993Z,101288.91
2022-11-13T13:16:33.662Z,101283.47
2022-11-13T13:19:28.381Z,101280.88
2022-11-13T13:22:27.054Z,101274.53
2022-11-13T13:25:28.122Z,101268.25
2022-11-13T13:28:21.553Z,101281.28
2022-11-13T13:31:32.942Z,101274.75
2022-11-13T13:34:33.728Z,101270.38
2022-11-13T13:37:31.720Z,101259.94
2022-11-13T13:40:31.320Z,101259.41
2022-11-13T13:43:34.309Z,101255.47
2022-11-13T13:46:24.599Z,101250.84
2022-11-13T13:49:16.233Z,101241.59
2022-11-13T13:52:05.389Z,101259.41
2022-11-13T13:54:54.193Z,101240.25
2022-11-13T13:57:44.766Z,101242.81
2022-11-13T14:00:33.462Z,101237.56
2022-11-13T14:03:23.544Z,101243.63
2022-11-13T14:06:21.200Z,101245.09
2022-11-13T14:09:10.955Z,101241.59
2022-11-13T14:12:00.883Z,101244.59
2022-11-13T14:14:53.588Z,101243.81
2022-11-13T14:17:42.263Z,101245.31
2022-11-13T14:20:43.085Z,101239.75
2022-11-13T14:23:34.283Z,101242.00
2022-11-13T14:26:23.006Z,101233.88
2022-11-13T14:29:23.303Z,101236.22
2022-11-13T14:32:15.473Z,101228.31
2022-11-13T14:35:05.096Z,101231.56
2022-11-13T14:37:55.393Z,101218.09
2022-11-13T14:40:48.427Z,101223.06
2022-11-13T14:43:36.979Z,101210.69
2022-11-13T14:46:31.047Z,101213.28
2022-11-13T14:49:30.175Z,101215.31
2022-11-13T14:52:27.197Z,101216.34
2022-11-13T14:55:23.341Z,101220.47
2022-11-13T14:58:15.016Z,101205.31
2022-11-13T15:01:16.237Z,101204.78
2022-11-13T15:04:04.929Z,101203.38
2022-11-13T15:06:56.456Z,101210.38
2022-11-13T15:09:46.370Z,101200.09
2022-11-13T15:12:35.036Z,101201.09
2022-11-13T15:15:27.485Z,101200.31
2022-11-13T15:18:18.932Z,101195.34
2022-11-13T15:21:08.198Z,101195.00
2022-11-13T15:24:01.104Z,101196.78
2022-11-13T15:26:49.870Z,101198.81
2022-11-13T15:29:38.623Z,101194.88
2022-11-13T15:32:28.993Z,101194.38
2022-11-13T15:35:20.200Z,101197.16
2022-11-13T15:38:08.934Z,101199.72
2022-11-13T15:40:59.062Z,101202.75
2022-11-13T15:43:50.053Z,101200.84
2022-11-13T15:46:38.819Z,101196.78
2022-11-13T15:49:27.659Z,101196.59
2022-11-13T15:52:16.447Z,101200.72
2022-11-13T15:55:06.318Z,101198.84
2022-11-13T15:57:57.886Z,101202.75
2022-11-13T16:00:46.696Z,101196.53
2022-11-13T16:03:40.053Z,101188.81
2022-11-13T16:06:30.381Z,101187.16
2022-11-13T16:09:19.426Z,101188.19
2022-11-13T16:12:08.484Z,101183.19
2022-11-13T16:14:58.585Z,101174.06
2022-11-13T16:17:49.476Z,101188.97
2022-11-13T16:20:38.473Z,101186.22
2022-11-13T16:23:27.684Z,101194.81
2022-11-13T16:26:19.328Z,101196.41
2022-11-13T16:29:18.527Z,101197.28
2022-11-13T16:32:14.266Z,101186.38
2022-11-13T16:35:02.998Z,101195.22
2022-11-13T16:37:51.738Z,101186.09
2022-11-13T16:40:41.656Z,101188.59
2022-11-13T16:43:30.963Z,101187.34
2022-11-13T16:46:22.240Z,101182.28
2022-11-13T16:49:19.059Z,101181.78
2022-11-13T16:52:08.460Z,101181.19
2022-11-13T16:55:00.994Z,101179.25
2022-11-13T16:57:52.664Z,101180.41
2022-11-13T17:00:41.532Z,101176.84
2022-11-13T17:03:30.755Z,101169.53
2022-11-13T17:06:26.609Z,101161.22
2022-11-13T17:09:15.865Z,101166.78
2022-11-13T17:12:04.700Z,101164.47
2022-11-13T17:15:10.266Z,101157.38
2022-11-13T17:17:59.249Z,101153.53
2022-11-13T17:20:51.855Z,101147.00
2022-11-13T17:23:41.912Z,101147.22
2022-11-13T17:26:31.278Z,101140.72
2022-11-13T17:29:19.855Z,101143.19
2022-11-13T17:32:08.524Z,101135.22
2022-11-13T17:34:57.197Z,101136.78
2022-11-13T17:37:45.842Z,101136.38
2022-11-13T17:40:36.361Z,101139.34
2022-11-13T17:43:25.001Z,101132.22
2022-11-13T17:46:15.675Z,101133.28
2022-11-13T17:49:04.589Z,101134.00
2022-11-13T17:51:53.214Z,101135.53
2022-11-13T17:54:41.880Z,101135.53
2022-11-13T17:57:33.302Z,101134.66
2022-11-13T18:00:21.940Z,101125.97
2022-11-13T18:03:10.521Z,101124.91
2022-11-13T18:05:59.196Z,101128.25
2022-11-13T18:08:47.973Z,101132.63
2022-11-13T18:11:36.761Z,101130.16
2022-11-13T18:14:26.792Z,101130.06
2022-11-13T18:17:15.373Z,101124.63
2022-11-13T18:20:04.055Z,101129.34
2022-11-13T18:22:52.693Z,101129.69
2022-11-13T18:25:41.345Z,101125.34
2022-11-13T18:28:29.937Z,101123.31
2022-11-13T18:31:21.210Z,101127.41
2022-11-13T18:34:12.694Z,101120.84
2022-11-13T18:37:01.353Z,101124.09
2022-11-13T18:39:50.101Z,101119.13
2022-11-13T18:42:38.784Z,101114.78
2022-11-13T18:45:27.541Z,101104.66
2022-11-13T18:48:17.696Z,101105.50
2022-11-13T18:51:10.790Z,101105.69
2022-11-13T18:53:59.723Z,101104.06
2022-11-13T18:56:48.325Z,101105.19
2022-11-13T18:59:37.058Z,101103.16
2022-11-13T19:02:25.795Z,101101.47
2022-11-13T19:05:16.782Z,101094.59
2022-11-13T19:08:05.730Z,101088.41
2022-11-13T19:10:54.394Z,101089.66
2022-11-13T19:13:44.582Z,101093.81
2022-11-13T19:16:34.781Z,101092.19
2022-11-13T19:19:24.991Z,101077.91
2022-11-13T19:22:14.978Z,101079.78
2022-11-13T19:25:03.601Z,101081.81
2022-11-13T19:27:54.109Z,101080.72
2022-11-13T19:30:46.440Z,101092.00
2022-11-13T19:33:35.409Z,101081.38
2022-11-13T19:36:24.895Z,101078.72
2022-11-13T19:39:15.648Z,101073.75
2022-11-13T19:42:04.239Z,101072.09
2022-11-13T19:44:52.882Z,101074.13
2022-11-13T19:47:41.466Z,101068.41
2022-11-13T19:50:30.195Z,101077.06
2022-11-13T19:53:18.909Z,101065.16
2022-11-13T19:56:09.620Z,101070.81
2022-11-13T19:58:58.458Z,101064.31
2022-11-13T20:01:47.142Z,101058.97
2022-11-13T20:04:35.736Z,101057.69
2022-11-13T20:07:24.594Z,101063.22
2022-11-13T20:10:13.244Z,101064.97
2022-11-13T20:13:03.219Z,101057.69
2022-11-13T20:15:55.146Z,101061.47
2022-11-13T20:18:44.649Z,101057.31
2022-11-13T20:21:33.281Z,101057.03
2022-11-13T20:24:22.180Z,101061.94
2022-11-13T20:27:10.879Z,101056.91
2022-11-13T20:30:04.669Z,101052.50
2022-11-13T20:32:53.331Z,101056.59
2022-11-13T20:35:45.046Z,101049.94
2022-11-13T20:38:34.228Z,101055.66
2022-11-13T20:41:24.064Z,101056.50
2022-11-13T20:44:14.593Z,101046.16
2022-11-13T20:47:04.769Z,101052.81
2022-11-13T20:49:53.354Z,101047.75
2022-11-13T20:52:42.005Z,101046.75
2022-11-13T20:55:30.645Z,101051.34
2022-11-13T20:58:19.282Z,101049.03
2022-11-13T21:01:09.271Z,101042.03
2022-11-13T21:03:59.555Z,101042.84
2022-11-13T21:06:48.399Z,101041.66
2022-11-13T21:09:37.067Z,101038.59
2022-11-13T21:12:25.696Z,101038.06
2022-11-13T21:15:14.328Z,101029.88
2022-11-13T21:18:02.949Z,101029.88
2022-11-13T21:20:52.989Z,101020.66
2022-11-13T21:23:41.849Z,101017.69
2022-11-13T21:26:30.445Z,101022.41
2022-11-13T21:29:19.001Z,101017.75
2022-11-13T21:32:07.849Z,101024.06
2022-11-13T21:34:59.175Z,101010.31
2022-11-13T21:37:49.268Z,101009.09
2022-11-13T21:40:38.488Z,101003.97
2022-11-13T21:43:27.053Z,100992.44
2022-11-13T21:46:15.938Z,100988.91
2022-11-13T21:49:07.039Z,100987.25
2022-11-13T21:51:55.655Z,100991.03
2022-11-13T21:54:45.543Z,100991.34
2022-11-13T21:57:34.200Z,100991.09
2022-11-13T22:00:22.976Z,100983.72
2022-11-13T22:03:11.739Z,100981.28
2022-11-13T22:06:17.135Z,100984.97
2022-11-13T22:09:08.021Z,100988.91
2022-11-13T22:11:58.117Z,100995.97
2022-11-13T22:14:46.831Z,100991.41
2022-11-13T22:17:35.458Z,100997.69
2022-11-13T22:20:24.206Z,100998.06
2022-11-13T22:23:12.839Z,100996.50
2022-11-13T22:26:03.194Z,100989.88
2022-11-13T22:28:54.090Z,100989.47
2022-11-13T22:31:44.792Z,100998.00
2022-11-13T22:34:33.485Z,101000.66
2022-11-13T22:37:22.181Z,100994.94
2022-11-13T22:40:11.836Z,100994.50
2022-11-13T22:43:03.309Z,100993.66
2022-11-13T22:45:53.345Z,100996.97
2022-11-13T22:48:43.983Z,100995.38
2022-11-13T22:51:35.090Z,100985.50
2022-11-13T22:54:23.848Z,100994.19
2022-11-13T22:57:12.560Z,100990.47
2022-11-13T23:00:09.263Z,100997.44
2022-11-13T23:03:01.630Z,100993.72
2022-11-13T23:05:50.337Z,100985.97
2022-11-13T23:08:40.313Z,100986.72
2022-11-13T23:11:31.517Z,100981.59
2022-11-13T23:14:20.198Z,100979.31
2022-11-13T23:17:13.687Z,100972.66
2022-11-13T23:20:03.761Z,100977.94
2022-11-13T23:22:52.391Z,100982.50
2022-11-13T23:25:41.782Z,100974.56
2022-11-13T23:28:31.202Z,100960.47
2022-11-13T23:31:20.090Z,100969.06
2022-11-13T23:34:08.742Z,100974.81
2022-11-13T23:36:58.753Z,100977.22
2022-11-13T23:39:47.408Z,100961.72
2022-11-13T23:42:54.234Z,100964.34
2022-11-13T23:45:44.291Z,100960.59
2022-11-13T23:48:32.930Z,100954.88
2022-11-13T23:51:21.610Z,100959.38
2022-11-13T23:54:11.882Z,100948.13
2022-11-13T23:57:00.568Z,100952.84
2022-11-13T23:59:49.487Z,100953.28
